Map

Track Data

SID SEASON NUMBER BASIN SUBBASIN NAME ISO_TIME NATURE LAT LON WMO_WIND WMO_PRES WMO_AGENCY TRACK_TYPE DIST2LAND LANDFALL IFLAG USA_AGENCY USA_ATCF_ID USA_LAT USA_LON USA_RECORD USA_STATUS USA_WIND USA_PRES USA_SSHS USA_R34_NE USA_R34_SE USA_R34_SW USA_R34_NW USA_R50_NE USA_R50_SE USA_R50_SW USA_R50_NW USA_R64_NE USA_R64_SE USA_R64_SW USA_R64_NW USA_POCI USA_ROCI USA_RMW USA_EYE TOKYO_LAT TOKYO_LON TOKYO_GRADE TOKYO_WIND TOKYO_PRES TOKYO_R50_DIR TOKYO_R50_LONG TOKYO_R50_SHORT TOKYO_R30_DIR TOKYO_R30_LONG TOKYO_R30_SHORT TOKYO_LAND CMA_LAT CMA_LON CMA_CAT CMA_WIND CMA_PRES HKO_LAT HKO_LON HKO_CAT HKO_WIND HKO_PRES NEWDELHI_LAT NEWDELHI_LON NEWDELHI_GRADE NEWDELHI_WIND NEWDELHI_PRES NEWDELHI_CI NEWDELHI_DP NEWDELHI_POCI REUNION_LAT REUNION_LON REUNION_TYPE REUNION_WIND REUNION_PRES REUNION_TNUM REUNION_CI REUNION_RMW REUNION_R34_NE REUNION_R34_SE REUNION_R34_SW REUNION_R34_NW REUNION_R50_NE REUNION_R50_SE REUNION_R50_SW REUNION_R50_NW REUNION_R64_NE REUNION_R64_SE REUNION_R64_SW REUNION_R64_NW BOM_LAT BOM_LON BOM_TYPE BOM_WIND BOM_PRES BOM_TNUM BOM_CI BOM_RMW BOM_R34_NE BOM_R34_SE BOM_R34_SW BOM_R34_NW BOM_R50_NE BOM_R50_SE BOM_R50_SW BOM_R50_NW BOM_R64_NE BOM_R64_SE BOM_R64_SW BOM_R64_NW BOM_ROCI BOM_POCI BOM_EYE BOM_POS_METHOD BOM_PRES_METHOD NADI_LAT NADI_LON NADI_CAT NADI_WIND NADI_PRES WELLINGTON_LAT WELLINGTON_LON WELLINGTON_WIND WELLINGTON_PRES DS824_LAT DS824_LON DS824_STAGE DS824_WIND DS824_PRES TD9636_LAT TD9636_LON TD9636_STAGE TD9636_WIND TD9636_PRES TD9635_LAT TD9635_LON TD9635_WIND TD9635_PRES TD9635_ROCI NEUMANN_LAT NEUMANN_LON NEUMANN_CLASS NEUMANN_WIND NEUMANN_PRES MLC_LAT MLC_LON MLC_CLASS MLC_WIND MLC_PRES USA_GUST BOM_GUST BOM_GUST_PER REUNION_GUST REUNION_GUST_PER USA_SEAHGT USA_SEARAD_NE USA_SEARAD_SE USA_SEARAD_SW USA_SEARAD_NW STORM_SPEED STORM_DIR
1865232N30282 1865 13 NA NA NOT_NAMED 1865-08-20 00:00:00 TS 30.3000 -78.3000 50 hurdat_atl main 284 284 O_____________ hurdat_atl AL031865 30.3000 -78.3000 TS 50 0 3 33
1865232N30282 1865 13 NA NA NOT_NAMED 1865-08-20 03:00:00 TS 30.4400 -78.1951 main 297 286 P_____________ AL031865 30.4400 -78.1951 TS 50 0 3 30
1865232N30282 1865 13 NA NA NOT_NAMED 1865-08-20 06:00:00 TS 30.6000 -78.1000 50 hurdat_atl main 286 275 O_____________ hurdat_atl AL031865 30.6000 -78.1000 TS 50 0 4 23
1865232N30282 1865 13 NA NA NOT_NAMED 1865-08-20 09:00:00 TS 30.7924 -78.0149 main 275 264 P_____________ AL031865 30.7924 -78.0149 TS 50 0 4 23
1865232N30282 1865 13 NA NA NOT_NAMED 1865-08-20 12:00:00 TS 31.0000 -77.9000 50 hurdat_atl main 264 250 O_____________ hurdat_atl AL031865 31.0000 -77.9000 TS 50 0 5 32
1865232N30282 1865 13 NA NA NOT_NAMED 1865-08-20 15:00:00 TS 31.1925 -77.7224 main 256 245 P_____________ AL031865 31.1925 -77.7224 TS 50 0 5 41
1865232N30282 1865 13 NA NA NOT_NAMED 1865-08-20 18:00:00 TS 31.4000 -77.5000 50 hurdat_atl main 252 251 O_____________ hurdat_atl AL031865 31.4000 -77.5000 TS 50 0 6 42
1865232N30282 1865 13 NA NA NOT_NAMED 1865-08-20 21:00:00 TS 31.6425 -77.2500 main 251 241 P_____________ AL031865 31.6425 -77.2500 TS 50 0 7 40
1865232N30282 1865 13 NA NA NOT_NAMED 1865-08-21 00:00:00 TS 31.9000 -77.0000 50 hurdat_atl main 241 225 O_____________ hurdat_atl AL031865 31.9000 -77.0000 TS 50 0 6 38
1865232N30282 1865 13 NA NA NOT_NAMED 1865-08-21 03:00:00 TS 32.1500 -76.7849 main 229 211 P_____________ AL031865 32.1500 -76.7849 TS 50 0 6 34
1865232N30282 1865 13 NA NA NOT_NAMED 1865-08-21 06:00:00 TS 32.4000 -76.6000 50 hurdat_atl main 211 193 O_____________ hurdat_atl AL031865 32.4000 -76.6000 TS 50 0 6 29
1865232N30282 1865 13 NA NA NOT_NAMED 1865-08-21 09:00:00 TS 32.6649 -76.4499 main 199 192 P_____________ AL031865 32.6649 -76.4499 TS 50 0 6 27
1865232N30282 1865 13 NA NA NOT_NAMED 1865-08-21 12:00:00 TS 32.9000 -76.3000 50 hurdat_atl main 192 182 O_____________ hurdat_atl AL031865 32.9000 -76.3000 TS 50 0 5 36
1865232N30282 1865 13 NA NA NOT_NAMED 1865-08-21 15:00:00 TS 33.0650 -76.0999 main 182 173 P_____________ AL031865 33.0650 -76.0999 TS 50 0 5 48
1865232N30282 1865 13 NA NA NOT_NAMED 1865-08-21 18:00:00 TS 33.2000 -75.9000 50 hurdat_atl main 176 168 O_____________ hurdat_atl AL031865 33.2000 -75.9000 TS 50 0 4 46
1865232N30282 1865 13 NA NA NOT_NAMED 1865-08-21 21:00:00 TS 33.3500 -75.7424 main 172 157 P_____________ AL031865 33.3500 -75.7424 TS 50 0 4 40
1865232N30282 1865 13 NA NA NOT_NAMED 1865-08-22 00:00:00 TS 33.5000 -75.6000 50 hurdat_atl main 157 147 O_____________ hurdat_atl AL031865 33.5000 -75.6000 TS 50 0 4 38
1865232N30282 1865 13 NA NA NOT_NAMED 1865-08-22 03:00:00 TS 33.6575 -75.4500 main 150 142 P_____________ AL031865 33.6575 -75.4500 TS 50 0 4 40
1865232N30282 1865 13 NA NA NOT_NAMED 1865-08-22 06:00:00 TS 33.8000 -75.3000 50 hurdat_atl main 148 148 O_____________ hurdat_atl AL031865 33.8000 -75.3000 TS 50 0 3 47
1865232N30282 1865 13 NA NA NOT_NAMED 1865-08-22 09:00:00 TS 33.8849 -75.1573 main 148 148 P_____________ AL031865 33.8849 -75.1573 TS 55 0 3 52
1865232N30282 1865 13 NA NA NOT_NAMED 1865-08-22 12:00:00 TS 34.0000 -75.0000 60 hurdat_atl main 155 148 O_____________ hurdat_atl AL031865 34.0000 -75.0000 TS 60 0 5 39
1865232N30282 1865 13 NA NA NOT_NAMED 1865-08-22 15:00:00 TS 34.2350 -74.8151 main 157 152 P_____________ AL031865 34.2350 -74.8151 TS 60 0 6 34
1865232N30282 1865 13 NA NA NOT_NAMED 1865-08-22 18:00:00 TS 34.5000 -74.6000 60 hurdat_atl main 158 154 O_____________ hurdat_atl AL031865 34.5000 -74.6000 TS 60 0 6 39
1865232N30282 1865 13 NA NA NOT_NAMED 1865-08-22 21:00:00 TS 34.7000 -74.3573 main 154 154 P_____________ AL031865 34.7000 -74.3573 TS 60 0 6 46
1865232N30282 1865 13 NA NA NOT_NAMED 1865-08-23 00:00:00 TS 34.9000 -74.1000 60 hurdat_atl main 161 161 O_____________ hurdat_atl AL031865 34.9000 -74.1000 TS 60 0 6 43
1865232N30282 1865 13 NA NA NOT_NAMED 1865-08-23 03:00:00 TS 35.1424 -73.8499 main 172 167 P_____________ AL031865 35.1424 -73.8499 TS 60 0 6 39
1865232N30282 1865 13 NA NA NOT_NAMED 1865-08-23 06:00:00 TS 35.4000 -73.6000 60 hurdat_atl main 177 177 O_____________ hurdat_atl AL031865 35.4000 -73.6000 TS 60 0 6 38
1865232N30282 1865 13 NA NA NOT_NAMED 1865-08-23 09:00:00 TS 35.6498 -73.3647 main 190 189 P_____________ AL031865 35.6498 -73.3647 TS 60 0 6 39
1865232N30282 1865 13 NA NA NOT_NAMED 1865-08-23 12:00:00 TS 35.9000 -73.1000 60 hurdat_atl main 216 216 O_____________ hurdat_atl AL031865 35.9000 -73.1000 TS 60 0 7 44
1865232N30282 1865 13 NA NA NOT_NAMED 1865-08-23 15:00:00 TS 36.1424 -72.7796 main 244 244 P_____________ AL031865 36.1424 -72.7796 TS 60 0 8 49
1865232N30282 1865 13 NA NA NOT_NAMED 1865-08-23 18:00:00 TS 36.4000 -72.4000 60 hurdat_atl main 285 285 O_____________ hurdat_atl AL031865 36.4000 -72.4000 TS 60 0 9 50
1865232N30282 1865 13 NA NA NOT_NAMED 1865-08-23 21:00:00 TS 36.7001 -71.9502 main 325 325 P_____________ AL031865 36.7001 -71.9502 TS 60 0 9 50
1865232N30282 1865 13 NA NA NOT_NAMED 1865-08-24 00:00:00 TS 37.0000 -71.5000 60 hurdat_atl main 347 347 O_____________ hurdat_atl AL031865 37.0000 -71.5000 TS 60 0 8 50
1865232N30282 1865 13 NA NA NOT_NAMED 1865-08-24 03:00:00 TS 37.2347 -71.1416 main 371 367 P_____________ AL031865 37.2347 -71.1416 TS 60 0 7 48
1865232N30282 1865 13 NA NA NOT_NAMED 1865-08-24 06:00:00 TS 37.5000 -70.8000 60 hurdat_atl main 376 376 O_____________ hurdat_atl AL031865 37.5000 -70.8000 TS 60 0 8 42
1865232N30282 1865 13 NA NA NOT_NAMED 1865-08-24 09:00:00 TS 37.8623 -70.4220 main 373 356 P_____________ AL031865 37.8623 -70.4220 TS 60 0 10 38
1865232N30282 1865 13 NA NA NOT_NAMED 1865-08-24 12:00:00 TS 38.3000 -70.0000 60 hurdat_atl main 356 317 O_____________ hurdat_atl AL031865 38.3000 -70.0000 TS 60 0 12 37
1865232N30282 1865 13 NA NA NOT_NAMED 1865-08-24 15:00:00 TS 38.7880 -69.5192 main 317 280 P_____________ AL031865 38.7880 -69.5192 TS 60 0 13 38
1865232N30282 1865 13 NA NA NOT_NAMED 1865-08-24 18:00:00 TS 39.3000 -69.0000 60 hurdat_atl main 280 O_____________ hurdat_atl AL031865 39.3000 -69.0000 TS 60 0 13 38

About IBTrACS Database

This database is a web-friendly format of International Best Track Archive for Climate Stewardship (IBTrACS), a global best track data archive curated by NOAA dating back to 1842.

Updated: 2021-10-21